createdAt,value
2023-04-22T00:01:49.718Z,11.88
2023-04-22T00:04:21.598Z,11.18
2023-04-22T00:06:50.829Z,10.10
2023-04-22T00:09:19.834Z,11.20
2023-04-22T00:11:49.258Z,11.15
2023-04-22T00:14:17.886Z,13.82
2023-04-22T00:16:47.072Z,13.05
2023-04-22T00:19:16.275Z,14.63
2023-04-22T00:21:46.610Z,13.18
2023-04-22T00:24:15.454Z,12.38
2023-04-22T00:26:44.450Z,13.02
2023-04-22T00:29:13.268Z,14.63
2023-04-22T00:31:42.165Z,14.65
2023-04-22T00:34:10.534Z,15.13
2023-04-22T00:36:39.470Z,15.40
2023-04-22T00:39:09.435Z,13.98
2023-04-22T00:41:40.348Z,14.10
2023-04-22T00:44:11.304Z,13.65
2023-04-22T00:46:40.907Z,15.18
2023-04-22T00:49:09.964Z,11.70
2023-04-22T00:51:38.981Z,12.52
2023-04-22T00:54:09.056Z,10.45
2023-04-22T00:56:40.063Z,12.10
2023-04-22T00:59:10.941Z,11.90
2023-04-22T01:01:40.823Z,14.45
2023-04-22T01:04:12.558Z,12.20
2023-04-22T01:06:42.578Z,19.90
2023-04-22T01:09:12.814Z,14.25
2023-04-22T01:11:42.437Z,14.77
2023-04-22T01:14:10.985Z,14.77
2023-04-22T01:16:43.750Z,13.77
2023-04-22T01:19:13.139Z,15.10
2023-04-22T01:21:45.165Z,16.02
2023-04-22T01:24:16.392Z,16.95
2023-04-22T01:26:45.685Z,17.48
2023-04-22T01:29:15.324Z,15.50
2023-04-22T01:31:44.364Z,14.88
2023-04-22T01:34:13.084Z,14.55
2023-04-22T01:36:41.888Z,15.40
2023-04-22T01:39:10.680Z,14.80
2023-04-22T01:41:41.225Z,16.65
2023-04-22T01:44:09.658Z,17.70
2023-04-22T01:46:38.651Z,15.68
2023-04-22T01:49:08.440Z,14.25
2023-04-22T01:51:37.453Z,15.85
2023-04-22T01:54:06.746Z,15.50
2023-04-22T01:56:35.822Z,17.13
2023-04-22T01:59:06.377Z,14.10
2023-04-22T02:01:37.539Z,14.05
2023-04-22T02:04:08.667Z,16.58
2023-04-22T02:06:38.194Z,15.15
2023-04-22T02:11:36.208Z,13.80
2023-04-22T02:14:06.197Z,14.98
2023-04-22T02:16:35.211Z,15.60
2023-04-22T02:19:03.929Z,16.35
2023-04-22T02:21:34.110Z,16.33
2023-04-22T02:24:03.442Z,15.70
2023-04-22T02:26:32.474Z,14.93
2023-04-22T02:29:01.002Z,14.47
2023-04-22T02:31:31.701Z,14.90
2023-04-22T02:34:00.676Z,14.45
2023-04-22T02:36:29.588Z,15.18
2023-04-22T02:38:58.244Z,15.68
2023-04-22T02:41:26.941Z,16.10
2023-04-22T02:43:55.696Z,12.63
2023-04-22T02:46:24.803Z,14.43
2023-04-22T02:48:54.733Z,14.63
2023-04-22T02:51:24.230Z,18.15
2023-04-22T02:53:52.610Z,19.42
2023-04-22T02:56:21.904Z,17.45
2023-04-22T02:58:50.377Z,17.08
2023-04-22T03:01:19.242Z,17.90
2023-04-22T03:03:48.679Z,16.83
2023-04-22T03:06:24.911Z,20.20
2023-04-22T03:08:53.309Z,16.42
2023-04-22T03:11:22.627Z,20.30
2023-04-22T03:13:51.298Z,16.92
2023-04-22T03:16:20.305Z,16.63
2023-04-22T03:18:48.971Z,18.58
2023-04-22T03:21:17.675Z,18.50
2023-04-22T03:23:48.858Z,18.60
2023-04-22T03:26:19.400Z,19.88
2023-04-22T03:28:48.486Z,18.17
2023-04-22T03:31:17.586Z,21.85
2023-04-22T03:33:48.084Z,40.28
2023-04-22T03:36:27.645Z,58.83
2023-04-22T03:38:58.302Z,79.13
2023-04-22T03:41:28.495Z,63.90
2023-04-22T03:43:58.874Z,69.43
2023-04-22T03:46:29.422Z,60.72
2023-04-22T03:49:05.725Z,45.45
2023-04-22T03:51:36.744Z,31.67
2023-04-22T03:54:12.084Z,24.00
2023-04-22T03:56:47.883Z,19.85
2023-04-22T03:59:17.240Z,19.13
2023-04-22T04:01:47.432Z,24.25
2023-04-22T04:04:19.794Z,16.75
2023-04-22T04:06:54.307Z,17.25
2023-04-22T04:09:24.915Z,21.30
2023-04-22T04:11:54.303Z,19.10
2023-04-22T04:14:23.119Z,20.75
2023-04-22T04:16:53.603Z,18.65
2023-04-22T04:19:28.239Z,19.05
2023-04-22T04:21:58.094Z,16.13
2023-04-22T04:24:30.268Z,19.58
2023-04-22T04:27:06.513Z,15.95
2023-04-22T04:29:43.059Z,16.73
2023-04-22T04:32:18.405Z,14.65
2023-04-22T04:34:47.528Z,16.27
2023-04-22T04:37:19.211Z,15.73
2023-04-22T04:40:03.709Z,14.65
2023-04-22T04:42:45.108Z,16.40
2023-04-22T04:45:20.467Z,14.23
2023-04-22T04:50:24.459Z,16.80
2023-04-22T04:52:53.506Z,15.75
2023-04-22T04:55:29.468Z,16.50
2023-04-22T04:58:01.040Z,16.83
2023-04-22T05:00:29.916Z,20.15
2023-04-22T05:02:59.550Z,20.35
2023-04-22T05:05:28.790Z,17.50
2023-04-22T05:07:57.831Z,16.98
2023-04-22T05:10:30.901Z,15.90
2023-04-22T05:13:00.400Z,14.65
2023-04-22T05:15:31.436Z,15.77
2023-04-22T05:18:00.319Z,16.70
2023-04-22T05:20:29.242Z,14.45
2023-04-22T05:22:58.678Z,13.07
2023-04-22T05:25:27.033Z,11.65
2023-04-22T05:28:04.828Z,14.63
2023-04-22T05:30:40.760Z,12.70
2023-04-22T05:33:10.270Z,12.55
2023-04-22T05:35:41.759Z,11.82
2023-04-22T05:38:11.847Z,16.63
2023-04-22T05:40:42.047Z,17.40
2023-04-22T05:43:15.834Z,16.13
2023-04-22T05:45:49.580Z,15.35
2023-04-22T05:48:19.349Z,17.10
2023-04-22T05:50:58.759Z,17.27
2023-04-22T05:53:30.276Z,16.75
2023-04-22T05:56:01.684Z,16.02
2023-04-22T05:58:31.732Z,10.07
2023-04-22T06:01:07.150Z,8.85
2023-04-22T06:03:59.043Z,11.15
2023-04-22T06:06:28.882Z,11.32
2023-04-22T06:08:59.111Z,8.70
2023-04-22T06:13:58.422Z,10.27
2023-04-22T06:18:56.309Z,8.57
2023-04-22T06:21:25.863Z,8.77
2023-04-22T06:23:54.601Z,8.68
2023-04-22T06:26:23.666Z,7.40
2023-04-22T06:28:52.381Z,5.03
2023-04-22T06:31:23.862Z,6.18
2023-04-22T06:33:52.831Z,4.75
2023-04-22T06:36:21.633Z,4.00
2023-04-22T06:38:56.061Z,6.55
2023-04-22T06:41:27.300Z,5.68
2023-04-22T06:44:01.222Z,7.32
2023-04-22T06:46:58.303Z,4.28
2023-04-22T06:49:50.425Z,7.55
2023-04-22T06:52:41.639Z,4.85
2023-04-22T06:55:11.402Z,5.28
2023-04-22T06:57:40.841Z,4.45
2023-04-22T07:00:10.643Z,4.38
2023-04-22T07:02:42.666Z,5.20
2023-04-22T07:05:12.072Z,6.68
2023-04-22T07:07:42.209Z,5.43
2023-04-22T07:10:15.937Z,4.82
2023-04-22T07:12:56.526Z,4.15
2023-04-22T07:15:25.533Z,3.17
2023-04-22T07:17:56.333Z,4.43
2023-04-22T07:20:25.472Z,4.03
2023-04-22T07:22:54.139Z,4.55
2023-04-22T07:25:23.666Z,5.25
2023-04-22T07:27:52.460Z,4.90
2023-04-22T07:30:21.445Z,5.85
2023-04-22T07:32:50.313Z,8.40
2023-04-22T07:35:20.504Z,6.63
2023-04-22T07:37:49.050Z,4.50
2023-04-22T07:40:18.155Z,5.13
2023-04-22T07:42:46.712Z,4.40
2023-04-22T07:45:15.633Z,7.18
2023-04-22T07:47:44.308Z,6.07
2023-04-22T07:50:13.573Z,4.60
2023-04-22T07:52:44.133Z,6.15
2023-04-22T07:55:12.877Z,5.65
2023-04-22T07:57:41.471Z,4.38
2023-04-22T08:00:11.749Z,4.70
2023-04-22T08:02:44.243Z,3.53
2023-04-22T08:05:13.347Z,5.10
2023-04-22T08:07:43.680Z,3.55
2023-04-22T08:10:12.418Z,6.28
2023-04-22T08:12:40.952Z,5.95
2023-04-22T08:15:10.462Z,7.97
2023-04-22T08:17:39.232Z,5.18
2023-04-22T08:20:09.586Z,4.28
2023-04-22T08:22:38.914Z,4.28
2023-04-22T08:25:10.893Z,5.35
2023-04-22T08:27:39.420Z,3.70
2023-04-22T08:30:09.794Z,4.85
2023-04-22T08:32:38.779Z,3.83
2023-04-22T08:35:08.172Z,4.13
2023-04-22T08:37:36.754Z,2.83
2023-04-22T08:40:06.603Z,5.13
2023-04-22T08:42:37.264Z,2.80
2023-04-22T08:45:07.164Z,4.55
2023-04-22T08:47:36.924Z,5.05
2023-04-22T08:50:07.448Z,5.53
2023-04-22T08:52:36.187Z,5.18
2023-04-22T08:55:05.195Z,3.78
2023-04-22T08:57:34.018Z,3.88
2023-04-22T09:00:06.447Z,3.83
2023-04-22T09:02:35.286Z,2.35
2023-04-22T09:05:07.228Z,4.57
2023-04-22T09:07:36.538Z,3.95
2023-04-22T09:10:06.409Z,3.08
2023-04-22T09:12:36.973Z,4.40
2023-04-22T09:15:08.940Z,3.47
2023-04-22T09:17:39.408Z,4.10
2023-04-22T09:20:10.151Z,2.85
2023-04-22T09:22:41.233Z,4.28
2023-04-22T09:25:17.833Z,2.65
2023-04-22T09:27:51.310Z,3.20
2023-04-22T09:30:25.460Z,2.28
2023-04-22T09:32:56.108Z,3.53
2023-04-22T09:35:28.391Z,2.88
2023-04-22T09:37:57.303Z,3.97
2023-04-22T09:40:26.581Z,4.82
2023-04-22T09:42:56.970Z,2.55
2023-04-22T09:45:32.895Z,3.45
2023-04-22T09:48:04.859Z,3.45
2023-04-22T09:50:34.057Z,3.30
2023-04-22T09:53:04.618Z,4.75
2023-04-22T09:55:35.169Z,2.95
2023-04-22T09:58:09.105Z,4.35
2023-04-22T10:00:43.317Z,3.85
2023-04-22T10:03:11.980Z,2.53
2023-04-22T10:05:41.473Z,3.33
2023-04-22T10:08:12.800Z,3.33
2023-04-22T10:10:42.615Z,1.98
2023-04-22T10:13:11.309Z,3.53
2023-04-22T10:15:43.677Z,2.92
2023-04-22T10:18:15.220Z,6.22
2023-04-22T10:20:45.289Z,2.88
2023-04-22T10:28:13.822Z,2.95
2023-04-22T10:30:44.389Z,5.75
2023-04-22T10:33:39.183Z,4.60
2023-04-22T10:36:16.991Z,1.35
2023-04-22T10:39:19.140Z,2.25
2023-04-22T10:41:54.039Z,3.35
2023-04-22T10:44:23.985Z,2.17
2023-04-22T10:47:02.099Z,2.72
2023-04-22T10:49:35.019Z,3.53
2023-04-22T10:52:08.840Z,2.40
2023-04-22T10:55:02.015Z,3.00
2023-04-22T10:57:40.160Z,4.28
2023-04-22T11:00:45.823Z,5.47
2023-04-22T11:03:28.463Z,2.20
2023-04-22T11:06:16.884Z,2.05
2023-04-22T11:08:47.778Z,2.88
2023-04-22T11:11:18.971Z,3.53
2023-04-22T11:13:50.938Z,4.13
2023-04-22T11:16:23.143Z,2.28
2023-04-22T11:18:54.060Z,2.97
2023-04-22T11:21:23.870Z,2.20
2023-04-22T11:23:53.835Z,3.75
2023-04-22T11:26:35.649Z,2.10
2023-04-22T11:29:04.570Z,2.20
2023-04-22T11:31:33.257Z,3.35
2023-04-22T11:34:03.733Z,2.03
2023-04-22T11:36:32.361Z,3.35
2023-04-22T11:39:01.111Z,2.85
2023-04-22T11:41:30.150Z,5.25
2023-04-22T11:43:58.885Z,3.67
2023-04-22T11:46:31.507Z,4.05
2023-04-22T11:49:15.201Z,4.75
2023-04-22T11:51:57.007Z,4.28
2023-04-22T11:54:34.216Z,2.92
2023-04-22T11:57:04.824Z,3.75
2023-04-22T11:59:33.593Z,3.60
2023-04-22T12:02:02.323Z,3.75
2023-04-22T12:04:37.337Z,3.88
2023-04-22T12:07:06.190Z,3.42
2023-04-22T12:09:35.208Z,3.72
2023-04-22T12:12:04.929Z,3.60
2023-04-22T12:14:34.622Z,5.47
2023-04-22T12:17:05.517Z,5.40
2023-04-22T12:19:35.947Z,3.65
2023-04-22T12:22:04.677Z,5.32
2023-04-22T12:24:33.571Z,3.88
2023-04-22T12:27:02.174Z,2.17
2023-04-22T12:29:33.745Z,6.03
2023-04-22T12:32:02.430Z,4.35
2023-04-22T12:34:31.433Z,3.85
2023-04-22T12:37:01.489Z,4.88
2023-04-22T12:39:30.169Z,3.58
2023-04-22T12:41:58.779Z,3.80
2023-04-22T12:44:27.368Z,4.72
2023-04-22T12:46:56.052Z,6.10
2023-04-22T12:49:25.160Z,5.38
2023-04-22T12:51:54.010Z,3.60
2023-04-22T12:54:24.611Z,8.32
2023-04-22T12:56:53.192Z,4.70
2023-04-22T12:59:21.938Z,3.70
2023-04-22T13:01:50.347Z,5.03
2023-04-22T13:04:20.771Z,2.87
2023-04-22T13:06:56.218Z,4.57
2023-04-22T13:09:27.675Z,3.65
2023-04-22T13:11:56.062Z,4.47
2023-04-22T13:14:25.678Z,4.82
2023-04-22T13:16:54.364Z,4.95
2023-04-22T13:19:25.764Z,3.03
2023-04-22T13:21:54.464Z,3.63
2023-04-22T13:24:23.466Z,5.28
2023-04-22T13:26:53.299Z,3.75
2023-04-22T13:29:21.976Z,4.38
2023-04-22T13:31:50.845Z,5.10
2023-04-22T13:34:19.779Z,4.40
2023-04-22T13:36:48.642Z,6.93
2023-04-22T13:39:17.951Z,4.72
2023-04-22T13:41:46.926Z,4.63
2023-04-22T13:44:16.981Z,6.28
2023-04-22T13:46:45.674Z,6.22
2023-04-22T13:49:14.636Z,7.97
2023-04-22T13:51:43.331Z,6.10
2023-04-22T13:54:11.992Z,4.97
2023-04-22T13:56:40.430Z,5.13
2023-04-22T13:59:09.522Z,6.40
2023-04-22T14:01:39.633Z,4.80
2023-04-22T14:04:08.643Z,4.88
2023-04-22T14:06:37.168Z,5.63
2023-04-22T14:09:05.984Z,5.00
2023-04-22T14:11:34.413Z,4.60
2023-04-22T14:14:03.149Z,7.60
2023-04-22T14:16:31.832Z,5.30
2023-04-22T14:19:02.971Z,6.72
2023-04-22T14:21:31.378Z,5.53
2023-04-22T14:24:00.165Z,6.27
2023-04-22T14:26:28.601Z,7.25
2023-04-22T14:28:57.569Z,5.47
2023-04-22T14:31:26.097Z,6.72
2023-04-22T14:33:54.960Z,5.22
2023-04-22T14:36:24.956Z,7.75
2023-04-22T14:38:56.742Z,7.40
2023-04-22T14:41:25.543Z,7.75
2023-04-22T14:43:54.411Z,7.47
2023-04-22T14:46:22.923Z,18.10
2023-04-22T14:48:51.897Z,13.00
2023-04-22T14:51:20.991Z,7.30
2023-04-22T14:53:54.088Z,5.38
2023-04-22T14:56:23.331Z,8.10
2023-04-22T14:58:52.427Z,6.25
2023-04-22T15:01:21.580Z,7.30
2023-04-22T15:03:51.645Z,6.90
2023-04-22T15:06:21.273Z,10.32
2023-04-22T15:08:51.784Z,7.13
2023-04-22T15:11:22.006Z,7.18
2023-04-22T15:13:51.307Z,8.10
2023-04-22T15:16:20.052Z,8.77
2023-04-22T15:18:48.866Z,11.00
2023-04-22T15:21:17.266Z,7.25
2023-04-22T15:23:46.405Z,6.53
2023-04-22T15:26:15.284Z,9.03
2023-04-22T15:28:45.624Z,6.72
2023-04-22T15:31:14.072Z,8.23
2023-04-22T15:33:43.390Z,8.40
2023-04-22T15:36:12.769Z,7.03
2023-04-22T15:38:42.311Z,10.38
2023-04-22T15:41:10.826Z,9.05
2023-04-22T15:43:39.404Z,9.93
2023-04-22T15:46:10.308Z,9.18
2023-04-22T15:48:39.079Z,8.85
2023-04-22T15:51:07.738Z,8.75
2023-04-22T15:53:36.462Z,11.82
2023-04-22T15:56:05.454Z,7.38
2023-04-22T16:01:15.415Z,6.78
2023-04-22T16:03:50.224Z,10.38
2023-04-22T16:06:19.325Z,6.93
2023-04-22T16:08:48.266Z,8.88
2023-04-22T16:11:17.227Z,5.63
2023-04-22T16:13:46.539Z,7.10
2023-04-22T16:16:15.527Z,7.53
2023-04-22T16:18:44.687Z,7.30
2023-04-22T16:21:14.732Z,9.00
2023-04-22T16:23:43.592Z,9.15
2023-04-22T16:26:12.162Z,11.25
2023-04-22T16:28:40.835Z,9.75
2023-04-22T16:31:11.406Z,9.40
2023-04-22T16:33:40.238Z,9.75
2023-04-22T16:36:10.464Z,7.60
2023-04-22T16:38:40.902Z,6.65
2023-04-22T16:41:11.659Z,11.15
2023-04-22T16:43:41.310Z,9.70
2023-04-22T16:46:09.795Z,8.27
2023-04-22T16:48:38.612Z,12.80
2023-04-22T16:51:07.189Z,11.55
2023-04-22T16:53:35.582Z,9.27
2023-04-22T16:56:05.992Z,8.03
2023-04-22T16:58:34.702Z,7.50
2023-04-22T17:01:04.213Z,7.47
2023-04-22T17:03:33.305Z,10.43
2023-04-22T17:06:02.562Z,9.55
2023-04-22T17:08:31.407Z,7.90
2023-04-22T17:11:00.143Z,9.50
2023-04-22T17:13:30.560Z,8.30
2023-04-22T17:15:59.311Z,5.90
2023-04-22T17:18:28.508Z,8.65
2023-04-22T17:20:57.339Z,7.45
2023-04-22T17:23:27.020Z,10.20
2023-04-22T17:25:56.054Z,8.73
2023-04-22T17:28:24.454Z,8.20
2023-04-22T17:30:55.160Z,7.78
2023-04-22T17:33:23.776Z,8.60
2023-04-22T17:35:52.449Z,10.75
2023-04-22T17:38:20.918Z,11.75
2023-04-22T17:40:49.696Z,11.60
2023-04-22T17:43:18.392Z,8.43
2023-04-22T17:45:47.303Z,10.85
2023-04-22T17:48:17.332Z,9.55
2023-04-22T17:50:46.285Z,8.70
2023-04-22T17:53:14.805Z,9.68
2023-04-22T17:55:43.563Z,7.87
2023-04-22T17:58:12.213Z,11.82
2023-04-22T18:00:41.232Z,9.48
2023-04-22T18:03:10.329Z,9.70
2023-04-22T18:05:43.339Z,8.23
2023-04-22T18:08:12.309Z,9.95
2023-04-22T18:10:41.186Z,9.85
2023-04-22T18:13:09.579Z,11.45
2023-04-22T18:15:38.373Z,12.23
2023-04-22T18:18:07.177Z,21.27
2023-04-22T18:20:36.337Z,29.42
2023-04-22T18:23:06.720Z,28.52
2023-04-22T18:25:35.779Z,36.90
2023-04-22T18:28:04.194Z,29.55
2023-04-22T18:30:33.279Z,39.70
2023-04-22T18:33:02.130Z,36.20
2023-04-22T18:35:31.557Z,38.50
2023-04-22T18:38:00.031Z,37.47
2023-04-22T18:40:30.192Z,48.57
2023-04-22T18:42:59.197Z,41.30
2023-04-22T18:45:27.992Z,41.88
2023-04-22T18:47:56.855Z,52.08
2023-04-22T18:50:25.755Z,35.72
2023-04-22T18:52:54.677Z,22.80
2023-04-22T18:55:26.104Z,27.08
2023-04-22T18:57:56.485Z,21.23
2023-04-22T19:00:26.788Z,16.17
2023-04-22T19:05:24.019Z,14.35
2023-04-22T19:07:52.559Z,15.20
2023-04-22T19:10:22.240Z,16.27
2023-04-22T19:12:50.595Z,16.25
2023-04-22T19:15:21.483Z,12.48
2023-04-22T19:17:50.159Z,11.48
2023-04-22T19:20:19.393Z,14.13
2023-04-22T19:22:47.767Z,14.10
2023-04-22T19:25:18.906Z,24.20
2023-04-22T19:27:47.939Z,40.42
2023-04-22T19:30:17.094Z,45.17
2023-04-22T19:32:46.922Z,76.15
2023-04-22T19:35:16.667Z,95.60
2023-04-22T19:37:45.849Z,90.72
2023-04-22T19:40:18.002Z,99.72
2023-04-22T19:42:47.005Z,111.32
2023-04-22T19:45:15.963Z,224.38
2023-04-22T19:47:47.097Z,335.35
2023-04-22T19:50:16.710Z,446.95
2023-04-22T19:52:47.492Z,527.17
2023-04-22T19:55:17.569Z,427.40
2023-04-22T20:00:15.862Z,283.05
2023-04-22T20:02:45.005Z,304.38
2023-04-22T20:05:16.981Z,247.25
2023-04-22T20:07:48.425Z,197.45
2023-04-22T20:10:17.965Z,141.23
2023-04-22T20:12:47.807Z,113.95
2023-04-22T20:15:17.612Z,88.88
2023-04-22T20:17:46.691Z,62.22
2023-04-22T20:20:17.966Z,37.35
2023-04-22T20:22:47.499Z,30.65
2023-04-22T20:27:46.273Z,18.40
2023-04-22T20:30:15.731Z,16.42
2023-04-22T20:32:44.594Z,15.98
2023-04-22T20:35:16.745Z,16.58
2023-04-22T20:37:50.945Z,15.98
2023-04-22T20:40:21.616Z,13.98
2023-04-22T20:42:51.262Z,12.07
2023-04-22T20:47:49.197Z,12.32
2023-04-22T20:50:18.018Z,14.25
2023-04-22T20:52:48.646Z,12.43
2023-04-22T20:55:18.274Z,13.93
2023-04-22T20:57:47.606Z,11.65
2023-04-22T21:00:17.090Z,12.35
2023-04-22T21:02:47.920Z,12.55
2023-04-22T21:05:17.400Z,14.85
2023-04-22T21:07:52.161Z,13.45
2023-04-22T21:10:23.052Z,16.65
2023-04-22T21:12:52.593Z,16.80
2023-04-22T21:15:22.298Z,16.55
2023-04-22T21:17:56.729Z,19.90
2023-04-22T21:20:28.388Z,16.30
2023-04-22T21:22:59.816Z,17.60
2023-04-22T21:25:31.157Z,18.67
2023-04-22T21:28:00.349Z,16.88
2023-04-22T21:30:29.753Z,14.77
2023-04-22T21:32:58.465Z,12.75
2023-04-22T21:35:27.579Z,17.23
2023-04-22T21:37:57.841Z,14.85
2023-04-22T21:40:26.938Z,16.90
2023-04-22T21:42:55.574Z,12.35
2023-04-22T21:45:24.930Z,14.30
2023-04-22T21:47:54.026Z,15.23
2023-04-22T21:50:25.170Z,13.73
2023-04-22T21:52:53.839Z,15.80
2023-04-22T21:55:24.817Z,19.02
2023-04-22T21:57:53.306Z,18.02
2023-04-22T22:00:25.119Z,19.25
2023-04-22T22:02:53.789Z,18.92
2023-04-22T22:05:23.240Z,19.40
2023-04-22T22:07:53.086Z,19.27
2023-04-22T22:10:24.850Z,17.45
2023-04-22T22:12:53.304Z,16.25
2023-04-22T22:15:24.018Z,18.30
2023-04-22T22:17:52.678Z,19.38
2023-04-22T22:20:21.749Z,16.23
2023-04-22T22:22:50.492Z,16.40
2023-04-22T22:25:32.902Z,14.27
2023-04-22T22:28:01.366Z,20.15
2023-04-22T22:30:30.828Z,20.83
2023-04-22T22:32:59.303Z,17.15
2023-04-22T22:35:28.132Z,16.42
2023-04-22T22:37:56.812Z,13.32
2023-04-22T22:40:27.648Z,16.73
2023-04-22T22:42:56.082Z,14.10
2023-04-22T22:45:24.985Z,15.10
2023-04-22T22:47:54.133Z,15.88
2023-04-22T22:50:24.782Z,19.45
2023-04-22T22:52:53.508Z,17.05
2023-04-22T22:55:22.392Z,17.80
2023-04-22T22:57:53.257Z,21.40
2023-04-22T23:00:22.150Z,21.45
2023-04-22T23:02:50.710Z,22.95
2023-04-22T23:05:19.907Z,21.27
2023-04-22T23:07:48.261Z,15.48
2023-04-22T23:10:17.347Z,17.40
2023-04-22T23:12:46.027Z,16.55
2023-04-22T23:15:16.573Z,14.82
2023-04-22T23:17:45.064Z,16.23
2023-04-22T23:20:14.647Z,16.17
2023-04-22T23:22:44.019Z,11.10
2023-04-22T23:25:14.228Z,12.23
2023-04-22T23:30:11.936Z,23.15
2023-04-22T23:32:44.829Z,14.43
2023-04-22T23:35:14.844Z,15.35
2023-04-22T23:37:45.660Z,13.95
2023-04-22T23:40:15.025Z,13.45
2023-04-22T23:42:43.568Z,13.75
2023-04-22T23:45:13.497Z,13.70
2023-04-22T23:47:43.842Z,15.18
2023-04-22T23:50:14.223Z,15.23
2023-04-22T23:52:42.808Z,16.27
2023-04-22T23:55:14.095Z,14.35
2023-04-22T23:57:43.265Z,15.23
